Time;durP1;ratioP1;P1;durP2;ratioP2;P2;SDS_P1;SDS_P2;PMS_P1;PMS_P2;Temp;Humidity;BMP_temperature;BMP_pressure;BME280_temperature;BME280_humidity;BME280_pressure;Samples;Min_cycle;Max_cycle;Signal;HPM_P1;HPM_P2
2021/08/13 00:01:07;;;;;;;10.40;9.32;;;;;;;;;;5052774;28;20464;-92
2021/08/13 00:03:34;;;;;;;10.32;9.32;;;;;;;;;;5056545;28;20421;-91
2021/08/13 00:06:01;;;;;;;10.40;9.40;;;;;;;;;;5050116;28;20423;-93
2021/08/13 00:08:29;;;;;;;10.15;9.05;;;;;;;;;;5048852;28;20406;-91
2021/08/13 00:10:56;;;;;;;9.88;8.88;;;;;;;;;;5056515;28;21017;-93
2021/08/13 00:13:23;;;;;;;9.93;9.00;;;;;;;;;;5062131;28;20504;-92
2021/08/13 00:15:50;;;;;;;9.57;8.70;;;;;;;;;;5051492;28;20461;-92
2021/08/13 00:18:18;;;;;;;9.70;8.80;;;;;;;;;;5057236;28;20773;-92
2021/08/13 00:20:45;;;;;;;10.83;9.67;;;;;;;;;;5052732;28;20405;-90
2021/08/13 00:23:12;;;;;;;10.13;9.13;;;;;;;;;;5048986;28;20419;-90
2021/08/13 00:25:39;;;;;;;10.85;9.75;;;;;;;;;;5048667;28;20415;-90
2021/08/13 00:28:06;;;;;;;10.50;9.30;;;;;;;;;;5049286;28;20407;-91
2021/08/13 00:30:33;;;;;;;12.55;9.77;;;;;;;;;;5048726;28;20410;-92
2021/08/13 00:33:00;;;;;;;10.82;9.70;;;;;;;;;;5049175;28;20399;-91
2021/08/13 00:35:28;;;;;;;11.13;10.00;;;;;;;;;;5059302;28;20411;-92
2021/08/13 00:37:55;;;;;;;11.80;10.60;;;;;;;;;;5050358;28;20399;-92
2021/08/13 00:40:22;;;;;;;11.45;9.73;;;;;;;;;;5056788;28;20394;-92
2021/08/13 00:42:49;;;;;;;11.07;9.98;;;;;;;;;;5049119;28;20411;-93
2021/08/13 00:45:16;;;;;;;10.98;9.82;;;;;;;;;;5049487;28;20412;-92
2021/08/13 00:47:43;;;;;;;11.48;10.40;;;;;;;;;;5056769;28;20400;-91
2021/08/13 00:50:11;;;;;;;12.48;10.85;;;;;;;;;;5061412;28;20732;-92
2021/08/13 00:52:40;;;;;;;11.93;10.65;;;;;;;;;;5028766;28;20769;-93
2021/08/13 00:55:08;;;;;;;11.90;10.60;;;;;;;;;;5029392;28;20397;-91
2021/08/13 00:57:35;;;;;;;12.77;11.32;;;;;;;;;;5051700;28;20418;-93
2021/08/13 01:00:02;;;;;;;11.63;10.45;;;;;;;;;;5069205;28;20413;-92
2021/08/13 01:02:29;;;;;;;10.88;9.98;;;;;;;;;;5060516;28;20423;-91
2021/08/13 01:04:56;;;;;;;11.60;10.50;;;;;;;;;;5058802;28;20769;-93
2021/08/13 01:07:23;;;;;;;10.90;9.82;;;;;;;;;;5058023;28;20469;-92
2021/08/13 01:09:52;;;;;;;11.82;9.68;;;;;;;;;;5059171;28;20414;-91
2021/08/13 01:12:27;;;;;;;11.07;9.95;;;;;;;;;;5060248;28;20429;-92
2021/08/13 01:15:03;;;;;;;10.73;9.63;;;;;;;;;;5059637;28;20812;-93
2021/08/13 01:17:34;;;;;;;10.07;9.07;;;;;;;;;;5063008;28;20421;-92
2021/08/13 01:20:08;;;;;;;11.43;9.53;;;;;;;;;;5053826;28;20403;-93
2021/08/13 01:22:43;;;;;;;11.20;9.90;;;;;;;;;;5059230;28;20413;-91
2021/08/13 01:25:15;;;;;;;14.25;10.23;;;;;;;;;;5060662;28;20422;-92
2021/08/13 01:27:46;;;;;;;12.40;10.57;;;;;;;;;;5044821;28;20408;-92
2021/08/13 01:30:16;;;;;;;10.87;9.77;;;;;;;;;;5045334;28;20407;-92
2021/08/13 01:32:48;;;;;;;11.40;10.30;;;;;;;;;;5048112;28;20423;-93
2021/08/13 01:35:18;;;;;;;12.85;10.30;;;;;;;;;;5061033;28;20410;-92
2021/08/13 01:37:49;;;;;;;11.63;10.52;;;;;;;;;;5040599;28;20419;-92
2021/08/13 01:40:18;;;;;;;11.80;10.27;;;;;;;;;;5054802;28;20414;-93
2021/08/13 01:42:46;;;;;;;11.75;10.55;;;;;;;;;;5056126;28;20401;-93
2021/08/13 01:45:18;;;;;;;12.37;10.60;;;;;;;;;;5069641;28;20569;-93
2021/08/13 01:47:48;;;;;;;12.50;10.50;;;;;;;;;;5069480;28;20429;-92
2021/08/13 01:50:15;;;;;;;11.80;10.60;;;;;;;;;;5069671;28;20828;-92
2021/08/13 01:52:42;;;;;;;11.30;10.18;;;;;;;;;;5067322;28;20461;-91
2021/08/13 01:55:11;;;;;;;13.23;10.50;;;;;;;;;;5069453;28;20406;-92
2021/08/13 01:57:39;;;;;;;11.13;10.02;;;;;;;;;;5065698;28;20404;-92
2021/08/13 02:00:07;;;;;;;13.32;10.38;;;;;;;;;;5056888;28;20775;-92
2021/08/13 02:02:35;;;;;;;12.90;10.38;;;;;;;;;;5048937;28;20402;-92
2021/08/13 02:05:05;;;;;;;11.57;10.57;;;;;;;;;;5049336;28;20412;-93
2021/08/13 02:07:36;;;;;;;11.20;10.05;;;;;;;;;;5049229;28;20417;-91
2021/08/13 02:10:03;;;;;;;11.13;10.02;;;;;;;;;;5034069;28;20550;-93
2021/08/13 02:12:30;;;;;;;11.27;10.10;;;;;;;;;;5047718;28;20830;-93
2021/08/13 02:14:57;;;;;;;11.43;10.32;;;;;;;;;;5049825;28;20423;-93
2021/08/13 02:17:28;;;;;;;11.33;10.17;;;;;;;;;;5049523;28;20820;-93
2021/08/13 02:20:02;;;;;;;11.50;10.38;;;;;;;;;;5049135;28;20415;-92
2021/08/13 02:22:30;;;;;;;11.00;9.90;;;;;;;;;;5048497;28;20957;-92
2021/08/13 02:24:57;;;;;;;11.07;10.00;;;;;;;;;;5047843;28;20399;-93
2021/08/13 02:27:26;;;;;;;10.75;9.75;;;;;;;;;;5042679;28;20427;-93
2021/08/13 02:29:54;;;;;;;10.48;9.52;;;;;;;;;;5050214;28;20400;-92
2021/08/13 02:32:22;;;;;;;10.75;9.82;;;;;;;;;;5048234;28;20416;-92
2021/08/13 02:34:51;;;;;;;10.82;9.68;;;;;;;;;;5048542;28;21110;-92
2021/08/13 02:37:22;;;;;;;11.48;10.38;;;;;;;;;;5048282;28;20430;-92
2021/08/13 02:39:54;;;;;;;10.75;9.73;;;;;;;;;;5047848;28;20430;-92
2021/08/13 02:42:34;;;;;;;11.98;10.80;;;;;;;;;;5048440;28;20414;-94
2021/08/13 02:45:02;;;;;;;12.15;10.48;;;;;;;;;;5048520;28;20412;-93
2021/08/13 02:47:30;;;;;;;11.98;10.88;;;;;;;;;;5046837;28;20399;-93
2021/08/13 02:50:01;;;;;;;12.52;10.52;;;;;;;;;;5048157;28;20403;-93
2021/08/13 02:52:31;;;;;;;13.33;11.93;;;;;;;;;;5047512;28;20428;-93
2021/08/13 02:55:04;;;;;;;14.68;12.57;;;;;;;;;;5048503;28;20399;-93
2021/08/13 02:57:33;;;;;;;13.98;12.52;;;;;;;;;;5047040;28;20744;-94
2021/08/13 03:00:02;;;;;;;14.35;12.95;;;;;;;;;;5048373;28;20453;-94
2021/08/13 03:02:31;;;;;;;14.35;12.95;;;;;;;;;;5047535;28;20415;-94
2021/08/13 03:04:59;;;;;;;16.35;13.70;;;;;;;;;;5048420;28;20407;-94
2021/08/13 03:07:28;;;;;;;15.83;13.50;;;;;;;;;;5048181;28;20411;-94
2021/08/13 03:09:56;;;;;;;14.90;13.37;;;;;;;;;;5048044;28;20438;-94
2021/08/13 03:12:26;;;;;;;16.00;13.80;;;;;;;;;;5047916;28;21333;-94
2021/08/13 03:14:54;;;;;;;15.38;13.55;;;;;;;;;;5047233;28;20408;-94
2021/08/13 03:17:22;;;;;;;15.40;13.90;;;;;;;;;;5050065;28;20399;-94
2021/08/13 03:19:50;;;;;;;15.20;13.60;;;;;;;;;;5049628;28;20880;-94
2021/08/13 03:22:20;;;;;;;16.40;13.70;;;;;;;;;;5049207;28;20803;-93
2021/08/13 03:24:47;;;;;;;14.82;13.27;;;;;;;;;;5047962;28;20843;-94
2021/08/13 03:27:15;;;;;;;14.68;13.18;;;;;;;;;;5047637;28;20396;-94
2021/08/13 03:29:44;;;;;;;14.75;13.35;;;;;;;;;;5047340;28;20431;-93
2021/08/13 03:32:11;;;;;;;14.93;13.25;;;;;;;;;;5027315;28;20471;-94
2021/08/13 03:34:39;;;;;;;14.60;13.00;;;;;;;;;;5027126;28;20440;-94
2021/08/13 03:37:06;;;;;;;14.18;12.68;;;;;;;;;;5039012;28;20407;-94
2021/08/13 03:39:34;;;;;;;13.48;12.07;;;;;;;;;;5047300;28;20404;-94
2021/08/13 03:42:00;;;;;;;13.55;12.15;;;;;;;;;;5047505;28;20402;-93
2021/08/13 03:44:27;;;;;;;13.48;12.18;;;;;;;;;;5046905;28;20400;-94
2021/08/13 03:46:56;;;;;;;15.50;12.97;;;;;;;;;;5047024;28;20462;-91
2021/08/13 03:49:23;;;;;;;13.27;11.88;;;;;;;;;;5046829;28;20891;-94
2021/08/13 03:51:49;;;;;;;14.15;12.70;;;;;;;;;;5046929;28;20420;-93
2021/08/13 03:54:16;;;;;;;13.77;12.38;;;;;;;;;;5046862;28;20404;-93
2021/08/13 03:56:43;;;;;;;14.32;12.82;;;;;;;;;;5045510;28;20399;-94
2021/08/13 03:59:10;;;;;;;15.17;13.70;;;;;;;;;;5046602;28;20422;-94
2021/08/13 04:01:37;;;;;;;14.87;13.37;;;;;;;;;;5046756;28;20827;-94
2021/08/13 04:04:05;;;;;;;15.27;13.77;;;;;;;;;;5046022;28;20406;-92
2021/08/13 04:06:32;;;;;;;15.40;13.77;;;;;;;;;;5043926;28;20408;-94
2021/08/13 04:09:00;;;;;;;15.52;13.68;;;;;;;;;;5046394;28;20434;-93
2021/08/13 04:11:27;;;;;;;14.95;13.40;;;;;;;;;;5046341;28;20400;-94
2021/08/13 04:13:54;;;;;;;14.60;13.07;;;;;;;;;;5040291;28;20403;-94
2021/08/13 04:16:21;;;;;;;15.00;13.45;;;;;;;;;;5046331;28;20404;-93
2021/08/13 04:18:51;;;;;;;15.32;13.40;;;;;;;;;;5051824;28;20409;-93
2021/08/13 04:21:19;;;;;;;15.75;14.07;;;;;;;;;;5055162;28;20394;-94
2021/08/13 04:23:46;;;;;;;16.80;15.02;;;;;;;;;;5055584;28;20410;-93
2021/08/13 04:26:13;;;;;;;18.15;16.23;;;;;;;;;;5047245;28;20407;-94
2021/08/13 04:28:40;;;;;;;18.30;16.40;;;;;;;;;;5047892;28;20844;-94
2021/08/13 04:31:07;;;;;;;18.52;16.20;;;;;;;;;;5050820;28;20465;-93
2021/08/13 04:33:35;;;;;;;19.37;17.20;;;;;;;;;;5045483;28;20532;-93
2021/08/13 04:36:02;;;;;;;18.65;16.75;;;;;;;;;;5046773;28;20403;-93
2021/08/13 04:38:30;;;;;;;18.73;16.77;;;;;;;;;;5046984;28;20760;-93
2021/08/13 04:40:57;;;;;;;18.23;16.35;;;;;;;;;;5049850;28;20403;-93
2021/08/13 04:43:24;;;;;;;18.30;16.35;;;;;;;;;;5045964;28;20411;-93
2021/08/13 04:45:51;;;;;;;17.88;15.88;;;;;;;;;;5049265;28;20792;-92
2021/08/13 04:48:18;;;;;;;17.70;15.65;;;;;;;;;;5049690;28;20420;-93
2021/08/13 04:50:45;;;;;;;18.98;16.30;;;;;;;;;;5048695;28;20442;-92
2021/08/13 04:53:12;;;;;;;17.52;15.45;;;;;;;;;;5063808;28;20777;-93
2021/08/13 04:55:40;;;;;;;18.17;15.55;;;;;;;;;;5052744;28;20404;-92
2021/08/13 04:58:07;;;;;;;17.10;15.32;;;;;;;;;;5049981;28;20410;-93
2021/08/13 05:00:34;;;;;;;17.27;15.30;;;;;;;;;;5049465;28;20411;-93
2021/08/13 05:03:05;;;;;;;16.42;14.80;;;;;;;;;;5048450;28;20396;-93
2021/08/13 05:05:32;;;;;;;15.73;14.25;;;;;;;;;;5049053;28;20415;-93
2021/08/13 05:07:59;;;;;;;16.10;14.45;;;;;;;;;;5052284;28;20390;-93
2021/08/13 05:10:26;;;;;;;16.50;14.77;;;;;;;;;;5051605;28;20436;-93
2021/08/13 05:12:56;;;;;;;16.40;14.50;;;;;;;;;;5060409;28;20812;-93
2021/08/13 05:15:23;;;;;;;16.08;14.45;;;;;;;;;;5060469;28;20404;-93
2021/08/13 05:17:50;;;;;;;15.98;14.50;;;;;;;;;;5060240;28;20656;-93
2021/08/13 05:20:17;;;;;;;20.00;13.95;;;;;;;;;;5057347;28;20411;-93
2021/08/13 05:22:44;;;;;;;15.65;14.00;;;;;;;;;;5053068;28;20407;-94
2021/08/13 05:25:14;;;;;;;17.00;14.68;;;;;;;;;;5060573;28;20406;-91
2021/08/13 05:27:41;;;;;;;15.77;14.18;;;;;;;;;;5058531;28;20422;-93
2021/08/13 05:30:13;;;;;;;15.93;14.25;;;;;;;;;;5040776;28;20866;-93
2021/08/13 05:32:40;;;;;;;16.40;14.63;;;;;;;;;;5044192;28;20533;-92
2021/08/13 05:35:09;;;;;;;16.98;14.40;;;;;;;;;;5058933;28;20407;-90
2021/08/13 05:37:35;;;;;;;16.42;14.50;;;;;;;;;;5056415;28;20406;-94
2021/08/13 05:40:03;;;;;;;16.40;14.37;;;;;;;;;;5056771;28;21019;-96
2021/08/13 05:42:30;;;;;;;16.13;14.45;;;;;;;;;;5051921;28;20408;-95
2021/08/13 05:44:57;;;;;;;16.20;13.85;;;;;;;;;;5057124;28;20880;-94
2021/08/13 05:47:26;;;;;;;15.20;12.95;;;;;;;;;;5054820;28;20402;-95
2021/08/13 05:49:52;;;;;;;15.82;14.13;;;;;;;;;;5053298;28;20461;-81
2021/08/13 05:52:19;;;;;;;15.80;13.88;;;;;;;;;;5060809;28;20400;-96
2021/08/13 05:54:49;;;;;;;15.32;13.77;;;;;;;;;;5061741;28;20412;-96
2021/08/13 05:57:17;;;;;;;15.20;13.70;;;;;;;;;;5063132;28;20421;-96
2021/08/13 05:59:44;;;;;;;14.68;13.10;;;;;;;;;;5061322;28;20415;-96
2021/08/13 06:02:11;;;;;;;14.40;12.85;;;;;;;;;;5056628;28;20411;-96
2021/08/13 06:04:41;;;;;;;13.48;12.07;;;;;;;;;;5042186;28;20434;-96
2021/08/13 06:07:08;;;;;;;13.30;12.00;;;;;;;;;;5062082;28;20400;-95
2021/08/13 06:09:35;;;;;;;13.60;12.27;;;;;;;;;;5061337;28;20609;-95
2021/08/13 06:12:03;;;;;;;13.85;12.45;;;;;;;;;;5050773;28;20884;-95
2021/08/13 06:14:32;;;;;;;12.05;10.95;;;;;;;;;;5056204;28;20426;-95
2021/08/13 06:17:02;;;;;;;13.40;11.63;;;;;;;;;;5050685;28;20466;-96
2021/08/13 06:19:29;;;;;;;12.50;10.70;;;;;;;;;;5054164;28;20410;-96
2021/08/13 06:21:59;;;;;;;12.23;11.00;;;;;;;;;;5054018;28;20491;-95
2021/08/13 06:24:28;;;;;;;12.80;11.50;;;;;;;;;;5053827;28;20408;-95
2021/08/13 06:26:55;;;;;;;13.43;12.10;;;;;;;;;;5060552;28;20414;-96
2021/08/13 06:29:22;;;;;;;13.15;11.75;;;;;;;;;;5054743;28;20423;-95
2021/08/13 06:31:50;;;;;;;12.40;11.23;;;;;;;;;;5050370;28;20523;-95
2021/08/13 06:34:18;;;;;;;14.27;11.43;;;;;;;;;;5055019;28;20421;-96
2021/08/13 06:36:45;;;;;;;13.25;11.85;;;;;;;;;;5063579;28;20409;-95
2021/08/13 06:39:14;;;;;;;12.75;11.25;;;;;;;;;;5051607;28;20414;-95
2021/08/13 06:41:42;;;;;;;12.95;11.45;;;;;;;;;;5065467;28;20406;-96
2021/08/13 06:44:10;;;;;;;13.07;11.23;;;;;;;;;;5054255;28;20407;-95
2021/08/13 06:46:37;;;;;;;16.27;11.18;;;;;;;;;;5065204;28;20514;-95
2021/08/13 06:49:05;;;;;;;12.90;11.60;;;;;;;;;;5069241;28;20493;-96
2021/08/13 06:51:32;;;;;;;14.15;11.80;;;;;;;;;;5055727;28;20419;-95
2021/08/13 06:53:59;;;;;;;12.67;11.47;;;;;;;;;;5048717;28;20426;-96
2021/08/13 06:56:27;;;;;;;12.37;10.93;;;;;;;;;;5051842;28;20410;-96
2021/08/13 06:58:56;;;;;;;12.68;11.35;;;;;;;;;;5045779;28;20422;-95
2021/08/13 07:01:23;;;;;;;13.25;11.20;;;;;;;;;;5048478;28;20419;-95
2021/08/13 07:03:50;;;;;;;13.05;11.57;;;;;;;;;;5048755;28;20408;-96
2021/08/13 07:06:17;;;;;;;13.90;11.70;;;;;;;;;;5048601;28;20419;-95
2021/08/13 07:08:44;;;;;;;14.88;11.50;;;;;;;;;;5048085;28;20404;-95
2021/08/13 07:11:11;;;;;;;12.47;11.10;;;;;;;;;;5048414;28;20419;-95
2021/08/13 07:13:40;;;;;;;12.70;11.37;;;;;;;;;;5061447;28;20414;-95
2021/08/13 07:16:07;;;;;;;12.13;10.85;;;;;;;;;;5051230;28;20414;-95
2021/08/13 07:18:36;;;;;;;12.32;11.15;;;;;;;;;;5049338;28;20423;-96
2021/08/13 07:21:03;;;;;;;13.80;11.77;;;;;;;;;;5060898;28;20406;-95
2021/08/13 07:23:30;;;;;;;12.00;10.70;;;;;;;;;;5047882;28;20431;-95
2021/08/13 07:25:57;;;;;;;13.70;10.47;;;;;;;;;;5038299;28;20421;-95
2021/08/13 07:28:24;;;;;;;10.63;9.40;;;;;;;;;;5045176;28;21193;-95
2021/08/13 07:30:52;;;;;;;11.35;10.15;;;;;;;;;;5046245;28;20432;-95
2021/08/13 07:33:20;;;;;;;11.23;9.65;;;;;;;;;;5048218;28;20415;-95
2021/08/13 07:35:47;;;;;;;13.57;10.57;;;;;;;;;;5047915;28;20469;-95
2021/08/13 07:38:14;;;;;;;12.20;10.57;;;;;;;;;;5053925;28;20429;-96
2021/08/13 07:40:41;;;;;;;13.48;10.02;;;;;;;;;;5055487;28;20404;-96
2021/08/13 07:43:08;;;;;;;12.23;10.77;;;;;;;;;;5067051;28;20402;-95
2021/08/13 07:45:35;;;;;;;14.93;11.47;;;;;;;;;;5048364;28;20441;-95
2021/08/13 07:48:04;;;;;;;13.15;11.30;;;;;;;;;;5048524;28;20411;-95
2021/08/13 07:50:31;;;;;;;12.13;10.40;;;;;;;;;;5067623;28;20410;-95
2021/08/13 07:52:58;;;;;;;10.30;9.15;;;;;;;;;;5035684;28;20890;-95
2021/08/13 07:55:26;;;;;;;12.93;10.38;;;;;;;;;;5066747;28;20398;-95
2021/08/13 07:57:53;;;;;;;11.32;9.75;;;;;;;;;;5055425;28;20410;-95
2021/08/13 08:00:20;;;;;;;11.30;9.68;;;;;;;;;;5051300;28;20419;-95
2021/08/13 08:02:48;;;;;;;11.52;9.82;;;;;;;;;;5059028;28;20474;-96
2021/08/13 08:05:23;;;;;;;12.07;10.25;;;;;;;;;;5051208;28;20430;-94
2021/08/13 08:07:56;;;;;;;11.48;9.45;;;;;;;;;;5053461;28;20564;-93
2021/08/13 08:10:24;;;;;;;12.25;10.95;;;;;;;;;;5058544;28;20414;-95
2021/08/13 08:12:52;;;;;;;12.48;10.77;;;;;;;;;;5059256;28;20922;-94
2021/08/13 08:15:19;;;;;;;12.57;11.38;;;;;;;;;;5053489;28;20452;-96
2021/08/13 08:17:46;;;;;;;13.45;10.73;;;;;;;;;;5038994;28;20422;-96
2021/08/13 08:20:14;;;;;;;13.63;12.23;;;;;;;;;;5049616;28;20409;-96
2021/08/13 08:22:43;;;;;;;13.25;11.85;;;;;;;;;;5043692;28;20420;-95
2021/08/13 08:25:11;;;;;;;11.68;10.25;;;;;;;;;;5044380;28;20415;-96
2021/08/13 08:27:38;;;;;;;11.63;10.10;;;;;;;;;;5048844;28;20420;-95
2021/08/13 08:30:07;;;;;;;11.07;9.90;;;;;;;;;;5051720;28;20475;-95
2021/08/13 08:32:34;;;;;;;11.50;10.30;;;;;;;;;;5051703;28;20444;-96
2021/08/13 08:35:01;;;;;;;10.93;9.40;;;;;;;;;;5047158;28;20975;-95
2021/08/13 08:37:29;;;;;;;10.80;9.50;;;;;;;;;;5052595;28;20401;-95
2021/08/13 08:39:58;;;;;;;10.55;9.40;;;;;;;;;;5051529;28;20480;-95
2021/08/13 08:42:25;;;;;;;11.60;9.45;;;;;;;;;;5049284;28;20411;-96
2021/08/13 08:44:53;;;;;;;10.60;9.65;;;;;;;;;;5060522;28;20495;-94
2021/08/13 08:47:23;;;;;;;11.32;9.65;;;;;;;;;;5050134;28;20414;-95
2021/08/13 08:49:51;;;;;;;10.00;9.00;;;;;;;;;;5049724;28;20437;-95
2021/08/13 08:52:19;;;;;;;10.82;9.60;;;;;;;;;;5052789;28;20443;-96
2021/08/13 08:54:47;;;;;;;9.85;8.65;;;;;;;;;;5049471;28;20473;-94
2021/08/13 08:57:17;;;;;;;10.38;9.38;;;;;;;;;;5053093;28;20430;-96
2021/08/13 08:59:44;;;;;;;9.90;8.30;;;;;;;;;;5046351;28;20408;-95
2021/08/13 09:02:12;;;;;;;10.27;8.15;;;;;;;;;;5050222;28;20430;-95
2021/08/13 09:04:39;;;;;;;9.00;8.10;;;;;;;;;;5049682;28;20408;-95
2021/08/13 09:07:07;;;;;;;7.85;6.80;;;;;;;;;;5052498;28;20411;-95
2021/08/13 09:09:34;;;;;;;7.70;7.00;;;;;;;;;;5050493;28;20762;-95
2021/08/13 09:12:02;;;;;;;9.07;8.23;;;;;;;;;;5050441;28;20421;-96
2021/08/13 09:14:40;;;;;;;11.23;10.07;;;;;;;;;;5052929;28;20422;-96
2021/08/13 09:17:08;;;;;;;11.85;10.50;;;;;;;;;;5046728;28;20489;-95
2021/08/13 09:19:43;;;;;;;11.70;10.50;;;;;;;;;;5052330;28;20414;-95
2021/08/13 09:22:13;;;;;;;11.43;10.23;;;;;;;;;;5040371;28;20475;-95
2021/08/13 09:24:44;;;;;;;11.07;9.95;;;;;;;;;;5051645;28;20967;-96
2021/08/13 09:27:20;;;;;;;10.68;9.68;;;;;;;;;;5051618;28;20412;-95
2021/08/13 09:30:12;;;;;;;10.00;9.15;;;;;;;;;;5052804;28;20435;-95
2021/08/13 09:32:40;;;;;;;10.23;9.10;;;;;;;;;;5054050;28;20406;-96
2021/08/13 09:35:08;;;;;;;12.60;9.02;;;;;;;;;;5056964;28;20427;-95
2021/08/13 09:37:37;;;;;;;10.48;9.40;;;;;;;;;;5054380;28;20799;-95
2021/08/13 09:40:05;;;;;;;10.52;9.52;;;;;;;;;;5053936;28;20415;-96
2021/08/13 09:42:37;;;;;;;9.97;8.97;;;;;;;;;;5057300;28;20436;-96
2021/08/13 09:45:08;;;;;;;10.05;9.07;;;;;;;;;;5053340;28;20410;-96
2021/08/13 09:47:43;;;;;;;10.52;9.48;;;;;;;;;;5049916;28;20945;-95
2021/08/13 09:50:11;;;;;;;11.18;9.43;;;;;;;;;;5054113;28;20418;-96
2021/08/13 09:52:39;;;;;;;9.73;8.70;;;;;;;;;;5056542;28;20767;-95
2021/08/13 09:55:11;;;;;;;10.23;9.30;;;;;;;;;;5058615;28;20411;-96
2021/08/13 09:57:43;;;;;;;10.98;9.52;;;;;;;;;;5049124;28;20440;-96
2021/08/13 10:00:12;;;;;;;10.27;9.27;;;;;;;;;;5042751;28;20420;-96
2021/08/13 10:02:42;;;;;;;10.15;8.82;;;;;;;;;;5046816;28;20420;-96
2021/08/13 10:05:20;;;;;;;10.80;9.35;;;;;;;;;;5051486;28;20408;-94
2021/08/13 10:07:51;;;;;;;11.02;9.93;;;;;;;;;;5037232;28;20417;-95
2021/08/13 10:10:25;;;;;;;12.70;9.82;;;;;;;;;;5043184;28;20858;-96
2021/08/13 10:12:52;;;;;;;10.55;9.52;;;;;;;;;;5051122;28;20411;-96
2021/08/13 10:15:33;;;;;;;10.88;9.88;;;;;;;;;;5046811;28;20431;-96
2021/08/13 10:18:04;;;;;;;11.00;10.00;;;;;;;;;;5046211;28;20421;-96
2021/08/13 10:20:34;;;;;;;11.07;9.98;;;;;;;;;;5043914;28;21081;-95
2021/08/13 10:23:02;;;;;;;12.53;9.57;;;;;;;;;;5046755;28;20434;-96
2021/08/13 10:25:29;;;;;;;10.75;9.63;;;;;;;;;;5046557;28;20424;-96
2021/08/13 10:28:01;;;;;;;10.25;9.15;;;;;;;;;;5044527;28;20419;-93
2021/08/13 10:30:30;;;;;;;10.63;9.40;;;;;;;;;;5051347;28;20416;-96
2021/08/13 10:32:57;;;;;;;11.18;9.25;;;;;;;;;;5053626;28;20396;-94
2021/08/13 10:35:30;;;;;;;10.90;9.37;;;;;;;;;;5043818;28;20415;-95
2021/08/13 10:37:59;;;;;;;10.57;9.40;;;;;;;;;;5052483;28;20418;-96
2021/08/13 10:40:27;;;;;;;10.10;8.40;;;;;;;;;;5057837;28;20408;-96
2021/08/13 10:42:55;;;;;;;10.23;9.10;;;;;;;;;;5052988;28;20417;-96
2021/08/13 10:45:24;;;;;;;9.90;8.90;;;;;;;;;;5050379;28;20412;-96
2021/08/13 10:47:58;;;;;;;10.88;8.43;;;;;;;;;;5046932;28;20414;-96
2021/08/13 10:50:27;;;;;;;10.10;8.90;;;;;;;;;;5046196;28;20408;-96
2021/08/13 10:52:54;;;;;;;9.07;8.20;;;;;;;;;;5054197;28;20412;-96
2021/08/13 10:55:46;;;;;;;9.50;8.50;;;;;;;;;;5042891;28;20430;-96
2021/08/13 10:58:13;;;;;;;9.80;8.67;;;;;;;;;;5048116;28;20493;-96
2021/08/13 11:01:09;;;;;;;10.48;8.50;;;;;;;;;;5054279;28;20417;-96
2021/08/13 11:03:37;;;;;;;9.60;7.90;;;;;;;;;;5052787;28;20419;-96
2021/08/13 11:06:06;;;;;;;9.93;7.45;;;;;;;;;;5054752;28;20796;-96
2021/08/13 11:08:56;;;;;;;7.80;6.80;;;;;;;;;;5051105;28;20410;-96
2021/08/13 11:11:23;;;;;;;8.80;6.85;;;;;;;;;;5036590;28;20977;-95
2021/08/13 11:13:52;;;;;;;7.20;6.60;;;;;;;;;;5055853;28;20410;-95
2021/08/13 11:16:38;;;;;;;9.20;6.90;;;;;;;;;;5065995;28;21046;-96
2021/08/13 11:19:10;;;;;;;7.72;6.93;;;;;;;;;;5050381;28;20426;-96
2021/08/13 11:21:41;;;;;;;7.60;6.78;;;;;;;;;;5056507;28;20811;-96
2021/08/13 11:24:09;;;;;;;9.43;6.80;;;;;;;;;;5051998;28;20409;-96
2021/08/13 11:27:08;;;;;;;8.13;6.65;;;;;;;;;;5055401;28;20415;-96
2021/08/13 11:29:42;;;;;;;9.07;6.53;;;;;;;;;;5055698;28;20419;-96
2021/08/13 11:32:24;;;;;;;7.28;6.05;;;;;;;;;;5044921;28;20419;-96
2021/08/13 11:34:52;;;;;;;7.43;5.68;;;;;;;;;;5038190;28;21069;-96
2021/08/13 11:37:52;;;;;;;7.75;6.38;;;;;;;;;;5047239;28;20427;-95
2021/08/13 11:43:34;;;;;;;7.07;6.30;;;;;;;;;;5076059;28;20405;-96
2021/08/13 11:46:07;;;;;;;8.77;6.18;;;;;;;;;;5054911;28;20429;-96
2021/08/13 11:48:35;;;;;;;7.38;6.30;;;;;;;;;;5058279;28;20453;-96
2021/08/13 11:51:09;;;;;;;6.85;6.15;;;;;;;;;;5054002;28;20411;-96
2021/08/13 11:53:41;;;;;;;7.15;6.35;;;;;;;;;;5048530;28;20434;-96
2021/08/13 11:56:08;;;;;;;7.18;6.18;;;;;;;;;;5056381;28;20415;-96
2021/08/13 11:58:35;;;;;;;7.10;6.50;;;;;;;;;;5059850;28;20422;-96
2021/08/13 12:01:04;;;;;;;7.70;6.40;;;;;;;;;;5056218;28;20415;-96
2021/08/13 12:03:32;;;;;;;7.68;6.57;;;;;;;;;;5065210;28;20762;-96
2021/08/13 12:06:00;;;;;;;7.65;6.85;;;;;;;;;;5054789;28;20419;-96
2021/08/13 12:08:27;;;;;;;7.30;6.60;;;;;;;;;;5053813;28;20584;-96
2021/08/13 12:10:55;;;;;;;7.70;6.78;;;;;;;;;;5054031;28;20409;-96
2021/08/13 12:13:24;;;;;;;7.47;6.88;;;;;;;;;;5051995;28;20411;-96
2021/08/13 12:15:59;;;;;;;8.65;7.18;;;;;;;;;;5048533;28;20968;-96
2021/08/13 12:18:30;;;;;;;7.93;6.65;;;;;;;;;;5057282;28;20415;-96
2021/08/13 12:21:03;;;;;;;10.10;7.00;;;;;;;;;;5048751;28;20446;-96
2021/08/13 12:23:31;;;;;;;7.38;6.68;;;;;;;;;;5054649;28;20407;-96
2021/08/13 12:26:02;;;;;;;7.50;6.80;;;;;;;;;;5052364;28;20419;-96
2021/08/13 12:28:32;;;;;;;7.70;6.83;;;;;;;;;;5053565;28;20495;-96
2021/08/13 12:31:07;;;;;;;7.57;6.78;;;;;;;;;;5039585;28;20421;-96
2021/08/13 12:33:34;;;;;;;7.93;6.70;;;;;;;;;;5043372;28;20443;-96
2021/08/13 12:36:03;;;;;;;7.50;6.80;;;;;;;;;;5043255;28;20498;-96
2021/08/13 12:38:31;;;;;;;9.63;6.90;;;;;;;;;;5057075;28;20413;-95
2021/08/13 12:41:01;;;;;;;8.38;7.07;;;;;;;;;;5059422;28;20416;-95
2021/08/13 12:43:28;;;;;;;8.50;7.07;;;;;;;;;;5060202;28;20419;-96
2021/08/13 12:45:56;;;;;;;7.72;7.03;;;;;;;;;;5045340;28;20407;-95
2021/08/13 12:48:24;;;;;;;7.70;6.90;;;;;;;;;;5051683;28;21204;-95
2021/08/13 12:50:55;;;;;;;7.43;6.72;;;;;;;;;;5046851;28;20861;-96
2021/08/13 12:53:33;;;;;;;7.63;6.75;;;;;;;;;;5048903;28;20407;-96
2021/08/13 12:56:01;;;;;;;7.53;6.72;;;;;;;;;;5047761;28;20515;-95
2021/08/13 12:58:33;;;;;;;8.95;6.95;;;;;;;;;;5048766;28;20400;-96
2021/08/13 13:01:20;;;;;;;7.05;6.35;;;;;;;;;;5050658;28;20412;-95
2021/08/13 13:04:05;;;;;;;8.02;7.13;;;;;;;;;;5040479;28;20413;-96
2021/08/13 13:06:33;;;;;;;7.30;6.50;;;;;;;;;;5053108;28;20469;-95
2021/08/13 13:09:00;;;;;;;7.27;6.57;;;;;;;;;;5042020;28;20508;-94
2021/08/13 13:11:31;;;;;;;8.17;6.77;;;;;;;;;;5040823;28;20423;-96
2021/08/13 13:14:02;;;;;;;7.00;6.40;;;;;;;;;;5035848;28;20835;-95
2021/08/13 13:16:29;;;;;;;8.02;6.60;;;;;;;;;;5051319;28;21149;-96
2021/08/13 13:19:15;;;;;;;7.10;6.50;;;;;;;;;;5052558;28;20498;-96
2021/08/13 13:21:42;;;;;;;7.30;6.70;;;;;;;;;;5040857;28;20818;-95
2021/08/13 13:24:19;;;;;;;7.85;6.88;;;;;;;;;;5037976;28;20423;-95
2021/08/13 13:27:02;;;;;;;7.43;6.70;;;;;;;;;;5030016;28;20874;-96
2021/08/13 13:29:36;;;;;;;7.18;6.57;;;;;;;;;;5017374;28;21216;-96
2021/08/13 13:32:16;;;;;;;7.53;6.70;;;;;;;;;;5019261;28;20411;-96
2021/08/13 13:34:55;;;;;;;7.50;6.70;;;;;;;;;;5024097;28;20426;-96
2021/08/13 13:37:22;;;;;;;7.85;6.90;;;;;;;;;;5022009;28;20476;-96
2021/08/13 13:39:49;;;;;;;7.63;6.70;;;;;;;;;;5023434;28;20424;-96
2021/08/13 13:42:17;;;;;;;7.50;6.80;;;;;;;;;;5025273;28;20419;-93
2021/08/13 13:44:44;;;;;;;8.32;6.88;;;;;;;;;;5018862;28;20419;-96
2021/08/13 13:47:11;;;;;;;6.90;6.30;;;;;;;;;;5021112;28;20421;-96
2021/08/13 13:49:39;;;;;;;7.25;6.63;;;;;;;;;;5034086;28;20426;-96
2021/08/13 13:52:06;;;;;;;7.43;6.78;;;;;;;;;;5034320;28;20416;-96
2021/08/13 13:54:33;;;;;;;7.63;6.80;;;;;;;;;;5031087;28;21325;-96
2021/08/13 13:57:00;;;;;;;9.02;7.15;;;;;;;;;;5033213;28;20409;-95
2021/08/13 13:59:29;;;;;;;7.60;6.80;;;;;;;;;;5033080;28;20420;-95
2021/08/13 14:01:56;;;;;;;8.45;6.60;;;;;;;;;;5027890;28;20436;-95
2021/08/13 14:04:23;;;;;;;7.95;6.82;;;;;;;;;;5021475;28;20409;-95
2021/08/13 14:06:50;;;;;;;7.40;6.70;;;;;;;;;;5031846;28;20402;-96
2021/08/13 14:09:17;;;;;;;7.18;6.50;;;;;;;;;;5025751;28;20418;-96
2021/08/13 14:11:44;;;;;;;7.32;6.60;;;;;;;;;;5036999;28;20757;-96
2021/08/13 14:14:11;;;;;;;7.35;6.65;;;;;;;;;;5033066;28;20413;-95
2021/08/13 14:16:39;;;;;;;8.45;6.85;;;;;;;;;;5035429;28;20418;-95
2021/08/13 14:19:07;;;;;;;8.57;7.03;;;;;;;;;;5028717;28;20784;-96
2021/08/13 14:21:33;;;;;;;7.13;6.55;;;;;;;;;;5038602;28;20413;-94
2021/08/13 14:24:00;;;;;;;7.30;6.50;;;;;;;;;;5030909;28;20425;-93
2021/08/13 14:26:27;;;;;;;7.57;6.60;;;;;;;;;;5039084;28;20443;-91
2021/08/13 14:28:54;;;;;;;7.03;6.32;;;;;;;;;;5047310;28;20407;-93
2021/08/13 14:31:22;;;;;;;7.25;6.30;;;;;;;;;;5040876;28;20434;-90
2021/08/13 14:33:50;;;;;;;8.23;6.30;;;;;;;;;;5036986;28;20420;-91
2021/08/13 14:36:17;;;;;;;7.80;6.50;;;;;;;;;;5036385;28;20426;-92
2021/08/13 14:38:44;;;;;;;6.72;6.10;;;;;;;;;;5035762;28;20411;-92
2021/08/13 14:41:13;;;;;;;8.00;6.57;;;;;;;;;;5039130;28;20403;-92
2021/08/13 14:43:41;;;;;;;7.20;6.35;;;;;;;;;;5042706;28;20491;-92